createdAt,value
2018-08-11T00:01:06.557Z,99.90
2018-08-11T00:03:35.008Z,99.90
2018-08-11T00:06:03.501Z,99.90
2018-08-11T00:08:31.978Z,99.90
2018-08-11T00:11:00.491Z,99.90
2018-08-11T00:13:28.926Z,99.90
2018-08-11T00:15:57.400Z,99.90
2018-08-11T00:18:25.863Z,99.90
2018-08-11T00:20:54.317Z,99.90
2018-08-11T00:23:22.825Z,99.90
2018-08-11T00:25:51.292Z,99.90
2018-08-11T00:28:19.806Z,99.90
2018-08-11T00:30:48.224Z,99.90
2018-08-11T00:33:16.683Z,99.90
2018-08-11T00:35:45.169Z,99.90
2018-08-11T00:38:13.640Z,99.90
2018-08-11T00:40:42.112Z,99.90
2018-08-11T00:43:10.605Z,99.90
2018-08-11T00:45:39.040Z,99.90
2018-08-11T00:48:07.521Z,99.90
2018-08-11T00:50:36.912Z,99.90
2018-08-11T00:53:06.448Z,99.90
2018-08-11T00:55:34.931Z,99.90
2018-08-11T00:58:03.411Z,99.90
2018-08-11T01:00:31.891Z,99.90
2018-08-11T01:03:00.366Z,99.90
2018-08-11T01:05:28.824Z,99.90
2018-08-11T01:07:57.312Z,99.90
2018-08-11T01:10:25.774Z,99.90
2018-08-11T01:12:54.223Z,99.90
2018-08-11T01:15:23.179Z,99.90
2018-08-11T01:17:52.163Z,99.90
2018-08-11T01:20:20.613Z,99.90
2018-08-11T01:22:49.756Z,99.90
2018-08-11T01:25:18.255Z,99.90
2018-08-11T01:27:46.677Z,99.90
2018-08-11T01:30:17.759Z,99.90
2018-08-11T01:32:46.203Z,99.90
2018-08-11T01:35:14.682Z,99.90
2018-08-11T01:37:44.004Z,99.90
2018-08-11T01:40:13.643Z,99.90
2018-08-11T01:42:43.216Z,99.90
2018-08-11T01:45:12.546Z,99.90
2018-08-11T01:47:41.567Z,99.90
2018-08-11T01:50:11.493Z,99.90
2018-08-11T01:52:41.238Z,99.90
2018-08-11T01:55:10.967Z,99.90
2018-08-11T01:57:39.748Z,99.90
2018-08-11T02:00:10.215Z,99.90
2018-08-11T02:02:38.861Z,99.90
2018-08-11T02:05:08.076Z,99.90
2018-08-11T02:07:37.224Z,99.90
2018-08-11T02:10:07.476Z,99.90
2018-08-11T02:12:35.994Z,99.90
2018-08-11T02:15:06.299Z,99.90
2018-08-11T02:17:34.754Z,99.90
2018-08-11T02:20:03.252Z,99.90
2018-08-11T02:22:31.716Z,99.90
2018-08-11T02:25:00.148Z,99.90
2018-08-11T02:27:28.635Z,99.90
2018-08-11T02:29:57.060Z,99.90
2018-08-11T02:32:25.537Z,99.90
2018-08-11T02:34:53.977Z,99.90
2018-08-11T02:37:22.472Z,99.90
2018-08-11T02:39:50.917Z,99.90
2018-08-11T02:42:19.440Z,99.90
2018-08-11T02:44:47.984Z,99.90
2018-08-11T02:47:16.469Z,99.90
2018-08-11T02:49:44.911Z,99.90
2018-08-11T02:52:13.385Z,99.90
2018-08-11T02:54:41.819Z,99.90
2018-08-11T02:57:10.323Z,99.90
2018-08-11T02:59:38.777Z,99.90
2018-08-11T03:02:07.287Z,99.90
2018-08-11T03:04:35.704Z,99.90
2018-08-11T03:07:04.769Z,99.90
2018-08-11T03:09:33.217Z,99.90
2018-08-11T03:12:01.681Z,99.90
2018-08-11T03:14:30.133Z,99.90
2018-08-11T03:16:58.568Z,99.90
2018-08-11T03:19:27.043Z,99.90
2018-08-11T03:21:55.473Z,99.90
2018-08-11T03:24:23.921Z,99.90
2018-08-11T03:26:52.356Z,99.90
2018-08-11T03:29:20.800Z,99.90
2018-08-11T03:31:49.211Z,99.90
2018-08-11T03:34:17.645Z,99.90
2018-08-11T03:36:46.081Z,99.90
2018-08-11T03:39:14.536Z,99.90
2018-08-11T03:41:42.941Z,99.90
2018-08-11T03:44:11.771Z,99.90
2018-08-11T03:46:40.208Z,99.90
2018-08-11T03:49:08.680Z,99.90
2018-08-11T03:51:37.099Z,99.90
2018-08-11T03:54:05.581Z,99.90
2018-08-11T03:56:34.025Z,99.90
2018-08-11T03:59:02.536Z,99.90
2018-08-11T04:01:30.967Z,99.90
2018-08-11T04:03:59.415Z,99.90
2018-08-11T04:06:27.853Z,99.90
2018-08-11T04:08:56.285Z,99.90
2018-08-11T04:11:24.739Z,99.90
2018-08-11T04:13:53.216Z,99.90
2018-08-11T04:16:21.648Z,99.90
2018-08-11T04:18:50.073Z,99.90
2018-08-11T04:21:18.528Z,99.90
2018-08-11T04:23:46.971Z,99.90
2018-08-11T04:26:15.406Z,99.90
2018-08-11T04:28:43.824Z,99.90
2018-08-11T04:31:12.291Z,99.90
2018-08-11T04:33:40.740Z,99.90
2018-08-11T04:36:09.216Z,99.90
2018-08-11T04:38:37.640Z,99.90
2018-08-11T04:41:06.110Z,99.90
2018-08-11T04:43:34.545Z,99.90
2018-08-11T04:46:03.036Z,99.90
2018-08-11T04:48:31.472Z,99.90
2018-08-11T04:50:59.927Z,99.90
2018-08-11T04:53:28.331Z,99.90
2018-08-11T04:55:56.772Z,99.90
2018-08-11T04:58:25.202Z,99.90
2018-08-11T05:00:53.709Z,99.90
2018-08-11T05:03:22.091Z,99.90
2018-08-11T05:05:50.535Z,99.90
2018-08-11T05:08:18.993Z,99.90
2018-08-11T05:10:47.392Z,99.90
2018-08-11T05:13:15.881Z,99.90
2018-08-11T05:15:44.312Z,99.90
2018-08-11T05:18:12.745Z,99.90
2018-08-11T05:20:41.175Z,99.90
2018-08-11T05:23:09.607Z,99.90
2018-08-11T05:25:38.029Z,99.40
2018-08-11T05:28:07.096Z,97.10
2018-08-11T05:30:35.594Z,94.80
2018-08-11T05:33:04.203Z,92.90
2018-08-11T05:35:32.598Z,91.80
2018-08-11T05:38:01.056Z,90.50
2018-08-11T05:40:30.161Z,90.10
2018-08-11T05:42:58.592Z,90.20
2018-08-11T05:45:27.263Z,89.10
2018-08-11T05:47:55.716Z,86.40
2018-08-11T05:50:24.149Z,85.00
2018-08-11T05:52:52.607Z,83.50
2018-08-11T05:55:21.065Z,84.60
2018-08-11T05:57:49.512Z,83.80
2018-08-11T06:00:18.024Z,79.40
2018-08-11T06:02:46.487Z,76.40
2018-08-11T06:05:14.977Z,71.10
2018-08-11T06:07:43.479Z,70.20
2018-08-11T06:10:12.987Z,68.80
2018-08-11T06:12:41.471Z,64.70
2018-08-11T06:15:09.964Z,65.70
2018-08-11T06:17:38.477Z,67.50
2018-08-11T06:20:08.193Z,68.30
2018-08-11T06:22:36.667Z,68.60
2018-08-11T06:25:06.643Z,67.50
2018-08-11T06:27:35.101Z,67.10
2018-08-11T06:30:03.623Z,69.80
2018-08-11T06:32:32.066Z,68.80
2018-08-11T06:35:00.545Z,64.90
2018-08-11T06:37:28.977Z,65.10
2018-08-11T06:39:57.427Z,63.90
2018-08-11T06:42:25.913Z,64.10
2018-08-11T06:44:54.392Z,62.70
2018-08-11T06:47:23.693Z,62.60
2018-08-11T06:49:52.200Z,62.80
2018-08-11T06:52:20.640Z,63.00
2018-08-11T06:54:49.156Z,62.20
2018-08-11T06:57:17.621Z,62.60
2018-08-11T06:59:46.058Z,62.50
2018-08-11T07:02:14.524Z,62.60
2018-08-11T07:04:42.940Z,63.10
2018-08-11T07:07:11.431Z,62.70
2018-08-11T07:09:39.872Z,61.60
2018-08-11T07:12:08.530Z,65.40
2018-08-11T07:14:36.966Z,68.50
2018-08-11T07:17:05.448Z,67.30
2018-08-11T07:19:33.886Z,66.60
2018-08-11T07:22:02.377Z,66.30
2018-08-11T07:24:30.803Z,65.70
2018-08-11T07:26:59.269Z,68.20
2018-08-11T07:29:27.690Z,66.30
2018-08-11T07:31:56.108Z,64.90
2018-08-11T07:34:24.545Z,63.70
2018-08-11T07:36:53.020Z,64.80
2018-08-11T07:39:21.532Z,65.00
2018-08-11T07:41:50.002Z,66.20
2018-08-11T07:44:18.504Z,66.50
2018-08-11T07:46:46.914Z,66.50
2018-08-11T07:49:15.371Z,66.20
2018-08-11T07:51:44.350Z,66.60
2018-08-11T07:54:12.788Z,65.50
2018-08-11T07:56:41.229Z,64.80
2018-08-11T07:59:09.692Z,66.60
2018-08-11T08:01:38.131Z,66.20
2018-08-11T08:04:06.820Z,64.60
2018-08-11T08:06:35.279Z,63.50
2018-08-11T08:09:04.333Z,67.10
2018-08-11T08:11:32.763Z,68.10
2018-08-11T08:14:01.194Z,70.50
2018-08-11T08:16:29.628Z,73.10
2018-08-11T08:18:58.058Z,77.00
2018-08-11T08:21:26.751Z,79.50
2018-08-11T08:23:55.168Z,83.20
2018-08-11T08:26:23.809Z,84.90
2018-08-11T08:28:52.093Z,86.60
2018-08-11T08:31:20.547Z,88.20
2018-08-11T08:33:49.000Z,89.70
2018-08-11T08:36:17.425Z,88.50
2018-08-11T08:38:45.848Z,85.70
2018-08-11T08:41:14.325Z,83.00
2018-08-11T08:43:42.764Z,82.40
2018-08-11T08:46:11.236Z,80.70
2018-08-11T08:48:39.709Z,78.10
2018-08-11T08:51:08.195Z,76.50
2018-08-11T08:53:36.656Z,75.40
2018-08-11T08:56:05.155Z,72.10
2018-08-11T08:58:33.637Z,74.50
2018-08-11T09:01:02.085Z,72.10
2018-08-11T09:03:30.719Z,70.70
2018-08-11T09:05:59.190Z,71.10
2018-08-11T09:08:27.627Z,71.50
2018-08-11T09:10:56.065Z,70.30
2018-08-11T09:13:24.516Z,70.20
2018-08-11T09:15:52.968Z,71.90
2018-08-11T09:18:21.448Z,72.20
2018-08-11T09:20:49.889Z,69.50
2018-08-11T09:23:18.373Z,70.10
2018-08-11T09:25:46.800Z,69.40
2018-08-11T09:28:15.264Z,68.10
2018-08-11T09:30:43.720Z,68.50
2018-08-11T09:33:12.182Z,66.90
2018-08-11T09:35:40.627Z,67.00
2018-08-11T09:38:09.096Z,68.80
2018-08-11T09:40:37.535Z,69.40
2018-08-11T09:43:06.027Z,67.20
2018-08-11T09:45:34.499Z,68.10
2018-08-11T09:48:03.004Z,65.90
2018-08-11T09:50:31.476Z,66.10
2018-08-11T09:52:59.942Z,64.80
2018-08-11T09:55:28.401Z,65.00
2018-08-11T09:57:56.843Z,66.00
2018-08-11T10:00:30.564Z,64.20
2018-08-11T10:02:59.007Z,62.80
2018-08-11T10:05:27.464Z,64.60
2018-08-11T10:07:55.977Z,63.90
2018-08-11T10:10:26.342Z,63.00
2018-08-11T10:12:54.812Z,63.60
2018-08-11T10:15:23.272Z,62.50
2018-08-11T10:17:51.699Z,62.90
2018-08-11T10:20:20.155Z,60.80
2018-08-11T10:22:48.605Z,63.20
2018-08-11T10:25:17.103Z,61.90
2018-08-11T10:27:45.564Z,63.60
2018-08-11T10:30:14.050Z,60.80
2018-08-11T10:32:42.504Z,60.30
2018-08-11T10:35:10.992Z,60.30
2018-08-11T10:37:39.436Z,61.50
2018-08-11T10:40:07.950Z,64.90
2018-08-11T10:42:36.383Z,65.90
2018-08-11T10:45:04.979Z,64.90
2018-08-11T10:47:33.461Z,62.80
2018-08-11T10:50:01.928Z,60.90
2018-08-11T10:52:30.382Z,64.60
2018-08-11T10:54:58.832Z,64.70
2018-08-11T10:57:27.296Z,60.70
2018-08-11T10:59:55.864Z,58.50
2018-08-11T11:02:24.344Z,60.70
2018-08-11T11:04:52.784Z,58.20
2018-08-11T11:07:21.301Z,60.20
2018-08-11T11:09:49.752Z,57.80
2018-08-11T11:12:18.217Z,57.90
2018-08-11T11:14:46.655Z,57.60
2018-08-11T11:17:15.120Z,57.90
2018-08-11T11:19:43.618Z,59.10
2018-08-11T11:22:12.075Z,60.40
2018-08-11T11:24:40.549Z,61.60
2018-08-11T11:27:09.024Z,59.50
2018-08-11T11:29:37.463Z,61.00
2018-08-11T11:32:06.004Z,61.70
2018-08-11T11:34:34.445Z,59.80
2018-08-11T11:37:02.944Z,57.90
2018-08-11T11:39:31.393Z,57.30
2018-08-11T11:41:59.860Z,55.60
2018-08-11T11:44:28.296Z,55.30
2018-08-11T11:46:57.723Z,55.10
2018-08-11T11:49:26.189Z,55.40
2018-08-11T11:51:54.692Z,55.40
2018-08-11T11:54:23.176Z,55.40
2018-08-11T11:56:51.684Z,56.10
2018-08-11T11:59:20.159Z,58.50
2018-08-11T12:01:48.624Z,56.40
2018-08-11T12:04:17.091Z,55.10
2018-08-11T12:06:45.552Z,55.10
2018-08-11T12:09:14.017Z,55.10
2018-08-11T12:11:42.460Z,56.30
2018-08-11T12:14:10.973Z,56.20
2018-08-11T12:16:39.462Z,56.80
2018-08-11T12:19:07.936Z,56.70
2018-08-11T12:21:36.384Z,57.80
2018-08-11T12:24:04.841Z,57.50
2018-08-11T12:26:33.281Z,55.50
2018-08-11T12:29:01.732Z,56.50
2018-08-11T12:31:30.158Z,58.10
2018-08-11T12:33:58.623Z,56.30
2018-08-11T12:36:27.069Z,56.40
2018-08-11T12:38:55.625Z,54.90
2018-08-11T12:41:24.136Z,53.00
2018-08-11T12:43:52.612Z,53.30
2018-08-11T12:46:21.048Z,51.90
2018-08-11T12:48:49.493Z,52.80
2018-08-11T12:51:17.940Z,52.80
2018-08-11T12:53:46.400Z,52.60
2018-08-11T12:56:14.870Z,52.50
2018-08-11T12:58:43.308Z,52.10
2018-08-11T13:01:11.768Z,51.00
2018-08-11T13:03:40.200Z,50.70
2018-08-11T13:06:08.737Z,50.50
2018-08-11T13:08:37.179Z,51.40
2018-08-11T13:11:05.644Z,50.70
2018-08-11T13:13:34.078Z,49.90
2018-08-11T13:16:02.527Z,49.90
2018-08-11T13:18:30.973Z,49.60
2018-08-11T13:20:59.409Z,49.60
2018-08-11T13:23:27.839Z,50.60
2018-08-11T13:25:56.275Z,50.00
2018-08-11T13:28:24.709Z,50.60
2018-08-11T13:30:53.154Z,51.00
2018-08-11T13:33:21.676Z,51.80
2018-08-11T13:35:50.124Z,51.10
2018-08-11T13:38:18.559Z,51.20
2018-08-11T13:40:47.036Z,52.00
2018-08-11T13:43:15.463Z,51.90
2018-08-11T13:45:43.956Z,52.10
2018-08-11T13:48:12.342Z,53.20
2018-08-11T13:50:40.755Z,54.00
2018-08-11T13:53:09.208Z,54.40
2018-08-11T13:55:37.640Z,53.40
2018-08-11T13:58:06.144Z,52.70
2018-08-11T14:00:34.578Z,52.10
2018-08-11T14:03:03.055Z,52.10
2018-08-11T14:05:31.453Z,52.50
2018-08-11T14:07:59.901Z,52.80
2018-08-11T14:10:28.321Z,52.40
2018-08-11T14:12:56.796Z,52.20
2018-08-11T14:15:25.203Z,51.60
2018-08-11T14:17:53.648Z,52.30
2018-08-11T14:20:22.104Z,53.60
2018-08-11T14:22:50.549Z,54.10
2018-08-11T14:25:18.983Z,52.90
2018-08-11T14:27:47.420Z,52.70
2018-08-11T14:30:16.598Z,52.20
2018-08-11T14:32:45.067Z,51.80
2018-08-11T14:35:13.539Z,52.30
2018-08-11T14:37:42.141Z,53.00
2018-08-11T14:40:11.128Z,52.40
2018-08-11T14:42:39.614Z,51.90
2018-08-11T14:45:09.568Z,51.20
2018-08-11T14:47:38.021Z,52.30
2018-08-11T14:50:06.999Z,53.10
2018-08-11T14:52:35.428Z,51.90
2018-08-11T14:55:04.219Z,52.30
2018-08-11T14:57:32.669Z,52.60
2018-08-11T15:00:01.122Z,53.60
2018-08-11T15:02:29.604Z,50.90
2018-08-11T15:04:58.297Z,52.10
2018-08-11T15:07:26.752Z,51.80
2018-08-11T15:09:55.305Z,51.30
2018-08-11T15:12:23.709Z,52.10
2018-08-11T15:14:52.195Z,49.60
2018-08-11T15:17:20.658Z,49.80
2018-08-11T15:19:49.099Z,51.00
2018-08-11T15:22:17.560Z,51.30
2018-08-11T15:24:45.985Z,51.30
2018-08-11T15:27:14.465Z,50.80
2018-08-11T15:29:42.910Z,50.70
2018-08-11T15:32:11.401Z,50.80
2018-08-11T15:34:39.832Z,50.70
2018-08-11T15:37:08.307Z,51.10
2018-08-11T15:39:36.784Z,50.60
2018-08-11T15:42:05.265Z,49.70
2018-08-11T15:44:33.725Z,49.30
2018-08-11T15:47:02.227Z,49.30
2018-08-11T15:49:30.693Z,49.20
2018-08-11T15:51:59.147Z,48.90
2018-08-11T15:54:27.567Z,48.70
2018-08-11T15:56:56.032Z,48.20
2018-08-11T15:59:24.467Z,49.00
2018-08-11T16:01:52.982Z,49.10
2018-08-11T16:04:21.395Z,50.00
2018-08-11T16:06:49.827Z,49.10
2018-08-11T16:09:18.265Z,49.60
2018-08-11T16:11:46.725Z,49.80
2018-08-11T16:14:15.157Z,49.90
2018-08-11T16:16:43.893Z,50.10
2018-08-11T16:19:12.342Z,49.70
2018-08-11T16:21:40.773Z,50.20
2018-08-11T16:24:09.215Z,50.70
2018-08-11T16:26:37.660Z,51.50
2018-08-11T16:29:06.239Z,51.50
2018-08-11T16:31:34.689Z,51.50
2018-08-11T16:34:03.124Z,51.40
2018-08-11T16:36:31.544Z,50.90
2018-08-11T16:38:59.971Z,50.50
2018-08-11T16:41:28.408Z,50.90
2018-08-11T16:43:56.835Z,50.30
2018-08-11T16:46:25.251Z,50.80
2018-08-11T16:48:53.784Z,51.20
2018-08-11T16:51:22.234Z,50.70
2018-08-11T16:53:50.746Z,51.10
2018-08-11T16:56:19.200Z,50.80
2018-08-11T16:58:47.643Z,51.00
2018-08-11T17:01:16.128Z,51.40
2018-08-11T17:03:44.580Z,51.30
2018-08-11T17:06:13.024Z,51.80
2018-08-11T17:08:41.589Z,51.70
2018-08-11T17:11:10.252Z,51.70
2018-08-11T17:13:38.720Z,51.10
2018-08-11T17:16:07.180Z,51.80
2018-08-11T17:18:35.612Z,52.40
2018-08-11T17:21:04.088Z,51.90
2018-08-11T17:23:32.514Z,52.30
2018-08-11T17:26:00.961Z,52.00
2018-08-11T17:28:29.402Z,53.50
2018-08-11T17:30:57.876Z,52.90
2018-08-11T17:33:26.308Z,53.20
2018-08-11T17:35:54.835Z,52.70
2018-08-11T17:38:23.321Z,52.60
2018-08-11T17:40:51.789Z,53.00
2018-08-11T17:43:20.257Z,53.10
2018-08-11T17:45:48.720Z,53.30
2018-08-11T17:48:17.164Z,53.50
2018-08-11T17:50:45.624Z,53.60
2018-08-11T17:53:14.059Z,53.50
2018-08-11T17:55:42.491Z,53.90
2018-08-11T17:58:10.924Z,54.00
2018-08-11T18:00:39.385Z,54.50
2018-08-11T18:03:07.864Z,54.80
2018-08-11T18:05:36.331Z,54.80
2018-08-11T18:08:04.821Z,55.20
2018-08-11T18:10:33.283Z,55.30
2018-08-11T18:13:01.715Z,55.90
2018-08-11T18:15:30.164Z,55.50
2018-08-11T18:17:58.640Z,56.80
2018-08-11T18:20:27.077Z,58.50
2018-08-11T18:22:55.528Z,59.30
2018-08-11T18:25:23.987Z,59.90
2018-08-11T18:27:52.488Z,62.80
2018-08-11T18:30:20.932Z,64.60
2018-08-11T18:32:49.420Z,65.80
2018-08-11T18:35:17.890Z,66.70
2018-08-11T18:37:46.341Z,66.50
2018-08-11T18:40:14.798Z,66.90
2018-08-11T18:42:43.246Z,67.10
2018-08-11T18:45:11.709Z,67.90
2018-08-11T18:47:40.167Z,68.80
2018-08-11T18:50:08.596Z,68.90
2018-08-11T18:52:37.068Z,69.70
2018-08-11T18:55:07.148Z,68.30
2018-08-11T18:57:35.615Z,67.30
2018-08-11T19:00:05.813Z,67.00
2018-08-11T19:02:34.228Z,69.10
2018-08-11T19:05:02.715Z,70.90
2018-08-11T19:07:31.129Z,71.70
2018-08-11T19:09:59.576Z,71.90
2018-08-11T19:12:28.055Z,71.50
2018-08-11T19:14:56.518Z,71.80
2018-08-11T19:17:24.931Z,72.10
2018-08-11T19:19:53.404Z,71.80
2018-08-11T19:22:21.822Z,72.50
2018-08-11T19:24:50.256Z,73.30
2018-08-11T19:27:18.692Z,73.20
2018-08-11T19:29:47.136Z,74.40
2018-08-11T19:32:15.544Z,75.20
2018-08-11T19:34:43.975Z,75.40
2018-08-11T19:37:12.431Z,75.20
2018-08-11T19:39:40.848Z,74.90
2018-08-11T19:42:09.317Z,75.40
2018-08-11T19:44:37.811Z,75.50
2018-08-11T19:47:06.307Z,76.00
2018-08-11T19:49:34.764Z,75.70
2018-08-11T19:52:03.248Z,76.00
2018-08-11T19:54:31.789Z,76.80
2018-08-11T19:57:00.296Z,77.80
2018-08-11T19:59:28.744Z,78.60
2018-08-11T20:01:57.220Z,78.80
2018-08-11T20:04:25.656Z,79.90
2018-08-11T20:06:54.130Z,81.20
2018-08-11T20:09:22.564Z,82.30
2018-08-11T20:11:51.076Z,83.40
2018-08-11T20:14:19.516Z,83.90
2018-08-11T20:16:48.041Z,84.10
2018-08-11T20:19:16.641Z,83.80
2018-08-11T20:21:45.003Z,83.90
2018-08-11T20:24:13.483Z,84.60
2018-08-11T20:26:41.948Z,85.10
2018-08-11T20:29:10.418Z,84.30
2018-08-11T20:31:38.921Z,84.00
2018-08-11T20:34:08.270Z,83.70
2018-08-11T20:36:36.755Z,83.90
2018-08-11T20:39:09.079Z,83.70
2018-08-11T20:41:37.565Z,83.70
2018-08-11T20:44:06.279Z,84.40
2018-08-11T20:46:34.802Z,84.20
2018-08-11T20:49:03.750Z,84.30
2018-08-11T20:51:32.289Z,85.20
2018-08-11T20:54:01.060Z,88.00
2018-08-11T20:56:29.716Z,89.70
2018-08-11T20:58:58.180Z,89.30
2018-08-11T21:01:26.636Z,88.70
2018-08-11T21:03:55.141Z,88.30
2018-08-11T21:06:23.605Z,88.30
2018-08-11T21:08:52.103Z,89.00
2018-08-11T21:11:20.587Z,90.70
2018-08-11T21:13:49.840Z,91.10
2018-08-11T21:16:18.287Z,90.80
2018-08-11T21:18:46.778Z,90.80
2018-08-11T21:21:15.236Z,90.90
2018-08-11T21:23:43.758Z,91.00
2018-08-11T21:26:12.173Z,90.90
2018-08-11T21:28:40.689Z,91.30
2018-08-11T21:31:09.153Z,91.30
2018-08-11T21:33:37.643Z,91.80
2018-08-11T21:36:06.226Z,91.70
2018-08-11T21:38:34.703Z,92.50
2018-08-11T21:41:03.196Z,93.10
2018-08-11T21:43:31.665Z,93.50
2018-08-11T21:46:00.288Z,93.60
2018-08-11T21:48:28.727Z,93.40
2018-08-11T21:50:57.203Z,93.30
2018-08-11T21:53:25.604Z,94.10
2018-08-11T21:55:54.074Z,94.80
2018-08-11T21:58:22.497Z,94.80
2018-08-11T22:00:56.840Z,94.90
2018-08-11T22:03:25.525Z,94.70
2018-08-11T22:05:53.975Z,95.00
2018-08-11T22:08:22.412Z,95.10
2018-08-11T22:10:50.835Z,95.50
2018-08-11T22:13:19.280Z,95.90
2018-08-11T22:15:47.775Z,96.20
2018-08-11T22:18:16.220Z,96.30
2018-08-11T22:20:44.715Z,96.90
2018-08-11T22:23:13.163Z,97.00
2018-08-11T22:25:41.720Z,97.10
2018-08-11T22:28:10.171Z,97.30
2018-08-11T22:30:38.611Z,97.90
2018-08-11T22:33:07.140Z,97.80
2018-08-11T22:35:35.595Z,98.90
2018-08-11T22:38:04.062Z,99.50
2018-08-11T22:40:32.566Z,99.90
2018-08-11T22:43:01.015Z,99.90
2018-08-11T22:45:29.443Z,99.90
2018-08-11T22:47:57.908Z,99.90
2018-08-11T22:50:26.479Z,99.90
2018-08-11T22:52:54.961Z,99.90
2018-08-11T22:55:23.359Z,99.90
2018-08-11T22:57:51.877Z,99.90
2018-08-11T23:00:21.501Z,99.90
2018-08-11T23:02:50.117Z,99.90
2018-08-11T23:05:19.997Z,99.90
2018-08-11T23:07:48.533Z,99.90
2018-08-11T23:10:17.605Z,99.90
2018-08-11T23:12:46.595Z,99.90
2018-08-11T23:15:18.467Z,99.90
2018-08-11T23:17:48.377Z,99.90
2018-08-11T23:20:17.145Z,99.90
2018-08-11T23:22:45.934Z,99.90
2018-08-11T23:25:15.249Z,99.90
2018-08-11T23:27:43.805Z,99.90
2018-08-11T23:30:14.110Z,99.90
2018-08-11T23:32:43.037Z,99.90
2018-08-11T23:35:12.041Z,99.90
2018-08-11T23:37:41.070Z,99.90
2018-08-11T23:40:10.352Z,99.90
2018-08-11T23:42:38.961Z,99.90
2018-08-11T23:45:13.775Z,99.90
2018-08-11T23:47:42.468Z,99.90
2018-08-11T23:50:12.060Z,99.90
2018-08-11T23:52:41.343Z,99.90
2018-08-11T23:55:10.831Z,99.90
2018-08-11T23:57:42.844Z,99.90
